Time;durP1;ratioP1;P1;durP2;ratioP2;P2;SDS_P1;SDS_P2;PMS_P1;PMS_P2;Temp;Humidity;BMP_temperature;BMP_pressure;BME280_temperature;BME280_humidity;BME280_pressure;Samples;Min_cycle;Max_cycle;Signal;HPM_P1;HPM_P2
2023/01/22 00:02:30;;;;;;;20.83;7.07;;;2.30;99.90;;;1.90;100.00;102384.81;5185793;28;20418;-69
2023/01/22 00:05:02;;;;;;;21.60;7.53;;;2.30;99.90;;;1.90;100.00;102383.16;5184902;28;20113;-69
2023/01/22 00:07:34;;;;;;;19.00;7.75;;;2.30;99.90;;;1.89;100.00;102378.78;5184541;28;20045;-69
2023/01/22 00:10:07;;;;;;;18.80;7.35;;;2.30;99.90;;;1.88;100.00;102392.34;5184468;28;20045;-69
2023/01/22 00:12:39;;;;;;;22.30;7.50;;;2.30;99.90;;;1.89;100.00;102381.34;5185033;28;20121;-69
2023/01/22 00:15:11;;;;;;;22.73;7.93;;;2.30;99.90;;;1.90;100.00;102385.72;5182989;28;20688;-69
2023/01/22 00:17:45;;;;;;;19.95;7.78;;;2.30;99.90;;;1.94;100.00;102375.72;5182394;28;20049;-69
2023/01/22 00:20:17;;;;;;;21.55;7.85;;;2.30;99.90;;;1.97;100.00;102370.88;5162869;28;20050;-69
2023/01/22 00:22:49;;;;;;;20.00;7.57;;;2.40;99.90;;;1.94;100.00;102365.41;5163286;28;20077;-69
2023/01/22 00:25:22;;;;;;;20.23;7.22;;;2.40;99.90;;;1.93;100.00;102363.63;5164637;28;20117;-69
2023/01/22 00:27:55;;;;;;;16.92;7.10;;;2.40;99.90;;;1.95;100.00;102362.97;5168525;28;20041;-69
2023/01/22 00:30:27;;;;;;;21.23;7.70;;;2.40;99.90;;;1.94;100.00;102363.75;5182864;28;20121;-69
2023/01/22 00:33:00;;;;;;;19.38;7.28;;;2.40;99.90;;;1.94;100.00;102362.84;5166150;28;20061;-69
2023/01/22 00:35:35;;;;;;;23.13;7.78;;;2.40;99.90;;;1.93;100.00;102354.22;5184417;28;20108;-69
2023/01/22 00:38:07;;;;;;;23.17;8.45;;;2.40;99.90;;;1.93;100.00;102358.47;5179703;28;20121;-69
2023/01/22 00:40:39;;;;;;;20.83;9.05;;;2.40;99.90;;;1.94;100.00;102344.84;5161681;28;20042;-69
2023/01/22 00:43:11;;;;;;;23.52;8.80;;;2.40;99.90;;;1.96;100.00;102339.09;5183124;28;20141;-69
2023/01/22 00:45:43;;;;;;;19.75;7.95;;;2.40;99.90;;;1.95;100.00;102331.22;5182980;28;20041;-69
2023/01/22 00:48:16;;;;;;;22.63;8.43;;;2.40;99.90;;;1.95;100.00;102336.34;5181332;28;20041;-69
2023/01/22 00:50:49;;;;;;;20.17;7.80;;;2.40;99.90;;;1.93;100.00;102327.59;5182899;28;20130;-69
2023/01/22 00:53:21;;;;;;;24.55;9.38;;;2.40;99.90;;;1.91;100.00;102327.47;5172072;28;20034;-69
2023/01/22 00:55:55;;;;;;;22.30;9.40;;;2.40;99.90;;;1.89;100.00;102337.63;5163965;28;20046;-69
2023/01/22 00:58:29;;;;;;;22.60;9.40;;;2.40;99.90;;;1.86;100.00;102339.88;5198378;28;20092;-69
2023/01/22 01:01:02;;;;;;;23.38;8.57;;;2.30;99.90;;;1.84;100.00;102346.56;5174407;28;20117;-69
2023/01/22 01:03:36;;;;;;;24.98;9.82;;;2.30;99.90;;;1.84;100.00;102348.22;5196396;28;20053;-69
2023/01/22 01:06:14;;;;;;;24.27;9.20;;;2.30;99.90;;;1.83;100.00;102347.31;5182816;28;20042;-69
2023/01/22 01:08:47;;;;;;;25.48;9.60;;;2.30;99.90;;;1.81;100.00;102338.53;5181784;28;20084;-69
2023/01/22 01:11:22;;;;;;;23.92;9.88;;;2.20;99.90;;;1.80;100.00;102338.41;5182398;28;20141;-69
2023/01/22 01:13:54;;;;;;;27.77;9.43;;;2.20;99.90;;;1.78;100.00;102333.13;5183897;28;20161;-69
2023/01/22 01:16:29;;;;;;;23.52;9.13;;;2.20;99.90;;;1.76;100.00;102338.88;5182579;28;20414;-69
2023/01/22 01:19:07;;;;;;;25.55;9.27;;;2.20;99.90;;;1.76;100.00;102338.88;5182138;28;20073;-69
2023/01/22 01:21:39;;;;;;;24.27;9.15;;;2.20;99.90;;;1.72;100.00;102332.53;5183911;28;20042;-69
2023/01/22 01:24:11;;;;;;;21.30;8.18;;;2.20;99.90;;;1.74;100.00;102332.69;5183775;28;20128;-69
2023/01/22 01:26:43;;;;;;;23.15;8.63;;;2.20;99.90;;;1.73;100.00;102328.31;5182575;28;20328;-69
2023/01/22 01:29:15;;;;;;;23.52;9.20;;;2.20;99.90;;;1.70;100.00;102326.38;5181844;28;20510;-69
2023/01/22 01:31:52;;;;;;;20.73;8.38;;;2.20;99.90;;;1.72;100.00;102321.34;5183687;28;20046;-68
2023/01/22 01:34:25;;;;;;;24.25;8.43;;;2.10;99.90;;;1.73;100.00;102324.06;5182682;28;20636;-69
2023/01/22 01:36:57;;;;;;;22.40;8.32;;;2.20;99.90;;;1.73;100.00;102324.06;5183389;28;20064;-69
2023/01/22 01:39:29;;;;;;;24.77;9.43;;;2.20;99.90;;;1.72;100.00;102319.69;5183664;28;20550;-69
2023/01/22 01:42:01;;;;;;;23.10;9.63;;;2.10;99.90;;;1.73;100.00;102329.22;5182310;28;20038;-69
2023/01/22 01:44:33;;;;;;;23.98;8.75;;;2.20;99.90;;;1.73;100.00;102323.16;5183852;28;20368;-69
2023/01/22 01:47:29;;;;;;;28.60;7.80;;;2.10;99.90;;;1.72;100.00;102321.34;5182485;28;20352;-69
2023/01/22 01:50:03;;;;;;;23.92;9.52;;;2.20;99.90;;;1.69;100.00;102327.09;5181698;28;20452;-69
2023/01/22 01:52:36;;;;;;;21.83;9.10;;;2.10;99.90;;;1.68;100.00;102325.28;5176708;28;20410;-69
2023/01/22 01:55:10;;;;;;;23.10;9.23;;;2.10;99.90;;;1.67;100.00;102328.63;5181290;28;20133;-69
2023/01/22 01:57:42;;;;;;;21.95;8.48;;;2.10;99.90;;;1.68;100.00;102320.16;5178198;28;20046;-69
2023/01/22 02:00:18;;;;;;;18.15;8.18;;;2.10;99.90;;;1.69;100.00;102327.09;5162486;28;20513;-69
2023/01/22 02:02:50;;;;;;;;;;;2.10;99.90;;;1.69;100.00;102319.38;5163679;28;20407;-69
2023/01/22 02:05:25;;;;;;;19.00;7.72;;;2.10;99.90;;;1.70;100.00;102323.78;5161837;28;19928;-69
2023/01/22 02:07:58;;;;;;;21.50;8.52;;;2.10;99.90;;;1.70;100.00;102323.78;5162939;28;20042;-69
2023/01/22 02:10:32;;;;;;;23.50;8.98;;;2.10;99.90;;;1.69;100.00;102327.09;5162495;28;20050;-69
2023/01/22 02:13:10;;;;;;;24.33;9.07;;;2.10;99.90;;;1.68;100.00;102319.25;5161856;28;20133;-69
2023/01/22 02:15:43;;;;;;;23.73;8.75;;;2.10;99.90;;;1.65;100.00;102319.88;5164703;28;20522;-69
2023/01/22 02:18:15;;;;;;;20.33;8.75;;;2.10;99.90;;;1.66;100.00;102321.69;5165411;28;20050;-69
2023/01/22 02:20:54;;;;;;;22.75;8.65;;;2.10;99.90;;;1.65;100.00;102312.16;5165952;28;20042;-69
2023/01/22 02:23:27;;;;;;;21.95;8.75;;;2.10;99.90;;;1.68;100.00;102314.09;5165428;28;20114;-69
2023/01/22 02:26:00;;;;;;;19.95;8.70;;;2.10;99.90;;;1.70;100.00;102328.94;5166234;28;20046;-69
2023/01/22 02:28:32;;;;;;;26.08;8.93;;;2.10;99.90;;;1.70;100.00;102323.78;5166392;28;20140;-69
2023/01/22 02:31:04;;;;;;;16.77;7.63;;;2.10;99.90;;;1.70;100.00;102317.75;5164748;28;20133;-69
2023/01/22 02:33:38;;;;;;;22.83;9.55;;;2.10;99.90;;;1.67;100.00;102318.34;5181443;28;20349;-69
2023/01/22 02:36:12;;;;;;;21.20;8.30;;;2.10;99.90;;;1.66;100.00;102311.41;5164814;28;20051;-69
2023/01/22 02:38:44;;;;;;;23.13;8.60;;;2.10;99.90;;;1.67;100.00;102312.31;5164799;28;20065;-69
2023/01/22 02:41:16;;;;;;;22.23;8.27;;;2.00;99.90;;;1.67;100.00;102315.78;5164614;28;20159;-69
2023/01/22 02:43:49;;;;;;;19.50;8.02;;;2.10;99.90;;;1.67;100.00;102314.88;5165072;28;20217;-69
2023/01/22 02:46:24;;;;;;;21.10;8.13;;;2.10;99.90;;;1.67;100.00;102323.47;5164691;28;20511;-69
2023/01/22 02:48:56;;;;;;;18.58;7.43;;;2.10;99.90;;;1.67;100.00;102313.19;5164351;28;20063;-69
2023/01/22 02:51:30;;;;;;;19.73;8.82;;;2.10;99.90;;;1.67;100.00;102322.59;5164622;28;20043;-69
2023/01/22 02:54:03;;;;;;;21.23;8.70;;;2.10;99.90;;;1.66;100.00;102313.97;5164482;28;20129;-70
2023/01/22 02:56:35;;;;;;;19.95;7.82;;;2.10;99.90;;;1.68;100.00;102312.44;5164492;28;20050;-69
2023/01/22 02:59:07;;;;;;;19.52;8.27;;;2.10;99.90;;;1.68;100.00;102309.88;5164184;28;20134;-69
2023/01/22 03:01:41;;;;;;;22.35;9.70;;;2.10;99.90;;;1.65;100.00;102309.59;5164355;28;20455;-69
2023/01/22 03:04:13;;;;;;;17.98;7.60;;;2.10;99.90;;;1.66;100.00;102319.09;5164568;28;20042;-69
2023/01/22 03:06:48;;;;;;;18.15;7.25;;;2.00;99.90;;;1.67;100.00;102313.19;5164065;28;20042;-69
2023/01/22 03:09:20;;;;;;;19.83;7.85;;;2.00;99.90;;;1.63;100.00;102305.97;5164398;28;20058;-69
2023/01/22 03:11:52;;;;;;;20.67;9.07;;;2.00;99.90;;;1.60;100.00;102315.97;5164486;28;20197;-69
2023/01/22 03:23:03;;;;;;;20.60;7.80;;;2.00;99.90;;;1.69;100.00;102290.19;5165460;28;20050;-69
2023/01/22 03:25:35;;;;;;;18.50;7.70;;;2.10;99.90;;;1.66;100.00;102295.97;5164334;28;20407;-69
2023/01/22 03:28:17;;;;;;;19.73;8.48;;;2.10;99.90;;;1.63;100.00;102286.31;5163418;28;20341;-69
2023/01/22 03:30:55;;;;;;;20.05;7.90;;;2.10;99.90;;;1.66;100.00;102290.84;5163881;28;20047;-69
2023/01/22 03:33:28;;;;;;;16.83;6.78;;;2.10;99.90;;;1.69;100.00;102285.97;5163982;28;20057;-69
2023/01/22 03:36:02;;;;;;;17.23;7.25;;;2.10;99.90;;;1.68;100.00;102284.16;5165128;28;20503;-69
2023/01/22 03:38:37;;;;;;;15.77;6.85;;;2.10;99.90;;;1.67;100.00;102277.22;5163646;28;20046;-69
2023/01/22 03:41:12;;;;;;;;;;;2.10;99.90;;;1.67;100.00;102282.34;5164054;28;20046;-69
2023/01/22 03:43:47;;;;;;;17.13;6.82;;;2.10;99.90;;;1.67;100.00;102277.22;5163976;28;19930;-69
2023/01/22 03:46:22;;;;;;;17.58;7.47;;;2.10;99.90;;;1.68;100.00;102273.88;5163596;28;20030;-69
2023/01/22 03:48:59;;;;;;;17.90;7.20;;;2.10;99.90;;;1.68;100.00;102280.69;5163306;28;20587;-69
2023/01/22 03:51:31;;;;;;;18.58;7.03;;;2.10;99.90;;;1.68;100.00;102284.16;5163503;28;20470;-69
2023/01/22 03:54:05;;;;;;;16.65;6.32;;;2.10;99.90;;;1.70;100.00;102298.09;5163454;28;20104;-69
2023/01/22 03:56:38;;;;;;;17.13;6.88;;;2.10;99.90;;;1.70;100.00;102284.31;5164739;28;20041;-69
2023/01/22 03:59:17;;;;;;;19.80;7.35;;;2.10;99.90;;;1.70;100.00;102287.78;5163178;28;20042;-69
2023/01/22 04:01:52;;;;;;;17.15;7.30;;;2.10;99.90;;;1.71;100.00;102288.69;5163258;28;20139;-69
2023/01/22 04:04:25;;;;;;;18.42;6.93;;;2.10;99.90;;;1.73;100.00;102282.94;5163665;28;20511;-69
2023/01/22 04:06:57;;;;;;;15.00;6.88;;;2.10;99.90;;;1.77;100.00;102290.19;5163110;28;20057;-69
2023/01/22 04:09:30;;;;;;;15.95;7.25;;;2.10;99.90;;;1.79;100.00;102292.88;5164300;28;20101;-69
2023/01/22 04:12:04;;;;;;;17.55;7.00;;;2.10;99.90;;;1.80;100.00;102294.69;5163229;28;20050;-69
2023/01/22 04:14:36;;;;;;;16.27;6.40;;;2.20;99.90;;;1.78;100.00;102291.09;5163445;28;20084;-69
2023/01/22 04:17:09;;;;;;;14.23;6.22;;;2.20;99.90;;;1.76;100.00;102284.88;5163176;28;20038;-69
2023/01/22 04:19:57;;;;;;;15.23;5.97;;;2.20;99.90;;;1.77;100.00;102295.31;5162728;28;20053;-69
2023/01/22 04:22:58;;;;;;;;;;;2.20;99.90;;;1.79;100.00;102287.75;5159718;28;20058;-69
2023/01/22 04:25:31;;;;;;;16.73;7.00;;;2.20;99.90;;;1.76;100.00;102285.81;5162956;28;20335;-69
2023/01/22 04:28:05;;;;;;;15.40;6.43;;;2.20;99.90;;;1.76;100.00;102288.38;5162691;28;20046;-69
2023/01/22 04:30:39;;;;;;;15.82;6.15;;;2.20;99.90;;;1.77;100.00;102292.75;5178892;28;20057;-69
2023/01/22 04:33:30;;;;;;;14.73;6.40;;;2.20;99.90;;;1.77;100.00;102297.91;5162990;28;20121;-69
2023/01/22 04:36:10;;;;;;;16.77;6.97;;;2.20;99.90;;;1.79;100.00;102292.88;5162531;28;20566;-69
2023/01/22 04:38:42;;;;;;;16.58;7.10;;;2.20;99.90;;;1.76;100.00;102296.09;5161926;28;20345;-69
2023/01/22 04:41:16;;;;;;;13.93;7.22;;;2.20;99.90;;;1.77;100.00;102300.47;5162936;28;20239;-69
2023/01/22 04:43:48;;;;;;;18.02;7.65;;;2.20;99.90;;;1.77;100.00;102294.41;5162723;28;20134;-69
2023/01/22 04:46:21;;;;;;;14.38;6.15;;;2.20;99.90;;;1.79;100.00;102295.47;5162628;28;20414;-69
2023/01/22 04:48:53;;;;;;;15.85;6.45;;;2.20;99.90;;;1.80;100.00;102297.25;5161897;28;20507;-69
2023/01/22 04:51:25;;;;;;;15.73;6.47;;;2.20;99.90;;;1.81;100.00;102297.41;5162606;28;20046;-69
2023/01/22 04:53:58;;;;;;;16.67;6.78;;;2.20;99.90;;;1.83;100.00;102293.31;5218270;23;20101;-68
2023/01/22 04:56:32;;;;;;;17.20;6.63;;;2.20;99.90;;;1.85;100.00;102301.19;5165179;28;20073;-68
2023/01/22 04:59:04;;;;;;;17.27;7.38;;;2.30;99.90;;;1.84;100.00;102308.00;5178729;28;20088;-69
2023/01/22 05:01:36;;;;;;;18.98;6.53;;;2.20;99.90;;;1.83;100.00;102295.91;5179843;28;20058;-68
2023/01/22 05:04:09;;;;;;;16.13;6.32;;;2.30;99.90;;;1.87;100.00;102291.94;5179565;28;20050;-68
2023/01/22 05:06:41;;;;;;;15.05;6.57;;;2.30;99.90;;;1.87;100.00;102292.81;5179386;28;20053;-69
2023/01/22 05:09:14;;;;;;;14.35;6.20;;;2.30;99.90;;;1.87;100.00;102287.69;5179127;28;20043;-69
2023/01/22 05:11:59;;;;;;;16.75;7.07;;;2.30;99.90;;;1.89;100.00;102286.19;5179382;28;20057;-68
2023/01/22 05:14:35;;;;;;;15.82;6.38;;;2.30;99.90;;;1.90;100.00;102295.69;5178963;28;20043;-68
2023/01/22 05:17:08;;;;;;;16.25;7.28;;;2.30;99.90;;;1.89;100.00;102293.91;5162798;28;20150;-68
2023/01/22 05:19:40;;;;;;;19.23;7.43;;;2.30;99.90;;;1.90;100.00;102294.81;5162284;28;20056;-68
2023/01/22 05:22:17;;;;;;;19.50;7.10;;;2.30;99.90;;;1.89;100.00;102296.47;5179253;28;20053;-68
2023/01/22 05:24:49;;;;;;;18.25;7.32;;;2.30;99.90;;;1.88;100.00;102296.31;5174926;28;20047;-69
2023/01/22 05:27:23;;;;;;;17.40;7.05;;;2.30;99.90;;;1.87;100.00;102302.22;5159188;28;20112;-69
2023/01/22 05:30:07;;;;;;;18.15;6.88;;;2.30;99.90;;;1.89;100.00;102293.91;5178636;28;20053;-68
2023/01/22 05:32:59;;;;;;;15.68;6.57;;;2.30;99.90;;;1.91;100.00;102301.75;5178977;28;20392;-69
2023/01/22 05:35:33;;;;;;;17.02;7.13;;;2.30;99.90;;;1.90;100.00;102295.69;5178965;28;20054;-69
2023/01/22 05:38:05;;;;;;;15.68;6.78;;;2.30;99.90;;;1.92;100.00;102300.09;5178914;28;20053;-68
2023/01/22 05:40:37;;;;;;;14.23;6.20;;;2.30;99.90;;;1.93;100.00;102291.59;5178521;28;20142;-70
2023/01/22 05:43:11;;;;;;;16.35;6.85;;;2.30;99.90;;;1.92;100.00;102297.50;5178740;28;20046;-69
2023/01/22 05:45:47;;;;;;;16.25;7.00;;;2.30;99.90;;;1.93;100.00;102301.88;5178701;28;20470;-69
2023/01/22 05:48:55;;;;;;;14.45;6.93;;;2.30;99.90;;;1.93;100.00;102307.94;5140876;28;20047;-68
2023/01/22 05:51:31;;;;;;;15.85;6.80;;;2.30;99.90;;;1.95;100.00;102305.50;5164068;28;20054;-69
2023/01/22 05:54:04;;;;;;;17.42;7.30;;;2.30;99.90;;;1.97;100.00;102307.47;5167044;28;20042;-69
2023/01/22 05:56:39;;;;;;;14.43;6.30;;;2.30;99.90;;;1.99;100.00;102302.47;5182726;28;20051;-69
2023/01/22 05:59:13;;;;;;;15.82;6.45;;;2.40;99.90;;;2.01;100.00;102308.63;5181876;28;20043;-69
2023/01/22 06:01:47;;;;;;;16.40;7.10;;;2.40;99.90;;;1.99;100.00;102303.34;5182477;28;20042;-68
2023/01/22 06:04:19;;;;;;;16.65;7.50;;;2.40;99.90;;;1.95;100.00;102293.53;5182225;28;20050;-69
2023/01/22 06:06:51;;;;;;;16.33;7.13;;;2.40;99.90;;;1.96;100.00;102299.63;5181942;28;20046;-68
2023/01/22 06:09:25;;;;;;;15.40;6.90;;;2.30;99.90;;;1.92;100.00;102306.13;5181969;28;20108;-68
2023/01/22 06:11:58;;;;;;;16.95;6.90;;;2.30;99.90;;;1.89;100.00;102309.34;5182353;28;20042;-68
2023/01/22 06:14:31;;;;;;;15.60;6.78;;;2.30;99.90;;;1.87;100.00;102303.13;5182101;28;20046;-68
2023/01/22 06:17:05;;;;;;;15.52;6.50;;;2.30;99.90;;;1.89;100.00;102304.19;5181901;28;20109;-68
2023/01/22 06:19:59;;;;;;;15.60;6.38;;;2.30;99.90;;;1.92;100.00;102305.22;5182236;28;20054;-68
2023/01/22 06:22:31;;;;;;;15.35;6.60;;;2.30;99.90;;;1.93;100.00;102307.03;5182134;28;20050;-68
2023/01/22 06:25:08;;;;;;;15.55;7.07;;;2.30;99.90;;;1.95;100.00;102301.25;5181827;28;20046;-69
2023/01/22 06:28:00;;;;;;;16.65;6.53;;;2.40;99.90;;;1.97;100.00;102301.41;5166966;28;20097;-69
2023/01/22 06:30:33;;;;;;;15.23;6.20;;;2.30;99.90;;;1.97;100.00;102293.69;5181678;28;20050;-68
2023/01/22 06:33:07;;;;;;;;;;;2.40;99.90;;;1.95;100.00;102290.06;5182371;28;20050;-68
2023/01/22 06:35:39;;;;;;;15.32;6.22;;;2.30;99.90;;;1.93;100.00;102294.16;5181511;28;19964;-68
2023/01/22 06:38:11;;;;;;;17.27;7.13;;;2.40;99.90;;;1.90;100.00;102292.22;5180830;28;20472;-69
2023/01/22 06:40:44;;;;;;;16.75;7.45;;;2.30;99.90;;;1.89;100.00;102291.31;5179036;28;20046;-69
2023/01/22 06:43:16;;;;;;;17.75;7.53;;;2.30;99.90;;;1.87;100.00;102302.22;5164461;28;20058;-68
2023/01/22 06:45:50;;;;;;;16.27;6.95;;;2.30;99.90;;;1.86;100.00;102298.75;5181516;28;20050;-69
2023/01/22 06:48:24;;;;;;;14.32;6.60;;;2.30;99.90;;;1.87;100.00;102302.22;5181445;28;20046;-68
2023/01/22 06:50:58;;;;;;;14.63;6.90;;;2.30;99.90;;;1.88;100.00;102304.00;5181288;28;20050;-68
2023/01/22 06:53:31;;;;;;;15.57;6.90;;;2.30;99.90;;;1.86;100.00;102303.88;5181567;28;20109;-69
2023/01/22 06:56:04;;;;;;;15.98;7.05;;;2.30;99.90;;;1.88;100.00;102319.44;5181731;28;20137;-69
2023/01/22 06:58:36;;;;;;;13.27;6.03;;;2.30;99.90;;;1.89;100.00;102317.03;5181573;28;20101;-68
2023/01/22 07:01:10;;;;;;;16.20;6.63;;;2.30;99.90;;;1.88;100.00;102322.94;5180483;28;20054;-68
2023/01/22 07:03:42;;;;;;;16.27;6.63;;;2.30;99.90;;;1.88;100.00;102329.75;5165612;28;20042;-58
2023/01/22 07:06:17;;;;;;;14.88;6.10;;;2.30;99.90;;;1.88;100.00;102337.44;5165828;28;20046;-57
2023/01/22 07:08:49;;;;;;;15.70;6.72;;;2.30;99.90;;;1.88;100.00;102335.78;5180622;28;20050;-56
2023/01/22 07:11:22;;;;;;;15.10;6.28;;;2.30;99.90;;;1.89;100.00;102342.75;5165866;28;20387;-56
2023/01/22 07:13:54;;;;;;;12.85;6.13;;;2.30;99.90;;;1.90;100.00;102348.81;5165684;28;20123;-60
2023/01/22 07:16:27;;;;;;;14.50;5.68;;;2.30;99.90;;;1.88;100.00;102346.06;5165886;28;20073;-62
2023/01/22 07:19:00;;;;;;;15.35;6.35;;;2.30;99.90;;;1.87;100.00;102344.25;5180221;28;20061;-57
2023/01/22 07:21:32;;;;;;;15.13;6.47;;;2.30;99.90;;;1.89;100.00;102350.47;5180372;28;20062;-61
2023/01/22 07:24:06;;;;;;;15.90;6.63;;;2.30;99.90;;;1.92;100.00;102356.66;5165691;28;20038;-59
2023/01/22 07:26:38;;;;;;;15.15;6.03;;;2.30;99.90;;;1.93;100.00;102354.22;5165390;28;20468;-56
2023/01/22 07:29:10;;;;;;;14.75;5.93;;;2.30;99.90;;;1.95;100.00;102364.66;5164847;28;20130;-57
2023/01/22 07:31:46;;;;;;;14.48;6.43;;;2.30;99.90;;;1.96;100.00;102364.81;5165256;28;20469;-61
2023/01/22 07:34:18;;;;;;;12.90;5.55;;;2.40;99.90;;;1.97;100.00;102370.88;5165213;28;20058;-57
2023/01/22 07:36:50;;;;;;;13.23;6.10;;;2.40;99.90;;;1.97;100.00;102371.78;5165065;28;20049;-59
2023/01/22 07:39:22;;;;;;;15.35;6.22;;;2.40;99.90;;;1.97;100.00;102360.59;5164474;28;20054;-56
2023/01/22 07:41:54;;;;;;;17.52;6.25;;;2.30;99.90;;;1.94;100.00;102363.75;5164378;28;20042;-56
2023/01/22 07:44:26;;;;;;;13.45;6.03;;;2.40;99.90;;;1.93;100.00;102363.63;5165395;28;20046;-56
2023/01/22 07:46:59;;;;;;;14.27;6.30;;;2.30;99.90;;;1.93;100.00;102361.03;5165037;28;20466;-56
2023/01/22 07:49:32;;;;;;;14.60;6.40;;;2.30;99.90;;;1.94;100.00;102370.56;5179626;28;20047;-57
2023/01/22 07:52:04;;;;;;;12.55;5.28;;;2.30;99.90;;;1.94;100.00;102371.47;5164993;28;20081;-61
2023/01/22 07:54:36;;;;;;;12.25;5.88;;;2.30;99.90;;;1.97;100.00;102370.88;5164992;28;20057;-60
2023/01/22 07:57:13;;;;;;;13.70;5.88;;;2.30;99.90;;;1.98;100.00;102368.44;5164538;28;20495;-59
2023/01/22 07:59:45;;;;;;;12.70;5.43;;;2.40;99.90;;;2.00;100.00;102371.13;5164829;28;20146;-56
2023/01/22 08:02:18;;;;;;;13.13;6.57;;;2.40;99.90;;;1.99;100.00;102372.81;5164657;28;20434;-57
2023/01/22 08:04:50;;;;;;;14.40;5.75;;;2.40;99.90;;;1.97;100.00;102376.00;5164669;28;20042;-61
2023/01/22 08:07:22;;;;;;;16.90;7.03;;;2.40;99.90;;;1.95;100.00;102377.50;5179613;28;20050;-60
2023/01/22 08:09:54;;;;;;;15.48;6.30;;;2.40;99.90;;;1.94;100.00;102370.56;5164532;28;20054;-55
2023/01/22 08:12:27;;;;;;;16.98;6.38;;;2.40;99.90;;;1.95;100.00;102374.94;5179746;28;20274;-56
2023/01/22 08:14:59;;;;;;;14.75;6.03;;;2.40;99.90;;;1.92;100.00;102382.38;5164477;28;20142;-60
2023/01/22 08:17:32;;;;;;;12.95;5.72;;;2.30;99.90;;;1.95;100.00;102392.94;5164580;28;20385;-59
2023/01/22 08:20:07;;;;;;;12.50;5.60;;;2.30;99.90;;;1.97;100.00;102394.00;5164234;28;20038;-56
2023/01/22 08:22:39;;;;;;;13.40;5.38;;;2.30;99.90;;;2.01;100.00;102393.53;5164294;28;20484;-58
2023/01/22 08:25:11;;;;;;;14.15;5.82;;;2.40;99.90;;;2.02;100.00;102396.25;5164418;28;20136;-60
2023/01/22 08:27:43;;;;;;;13.23;6.00;;;2.40;99.90;;;2.05;100.00;102409.41;5179233;28;20042;-56
2023/01/22 08:30:16;;;;;;;12.57;5.60;;;2.40;99.90;;;2.10;100.00;102399.56;5163038;28;20046;-62
2023/01/22 08:32:50;;;;;;;13.65;5.80;;;2.40;99.90;;;2.09;100.00;102406.38;5163569;28;20141;-58
2023/01/22 08:35:22;;;;;;;13.02;5.78;;;2.50;99.90;;;2.10;100.00;102415.00;5163747;28;20093;-58
2023/01/22 08:37:54;;;;;;;13.18;5.55;;;2.50;99.90;;;2.11;100.00;102412.56;5163460;28;20042;-59
2023/01/22 08:40:27;;;;;;;11.85;5.35;;;2.50;99.90;;;2.16;100.00;102405.28;5178154;28;20054;-61
2023/01/22 08:42:59;;;;;;;10.80;5.03;;;2.50;99.90;;;2.20;100.00;102407.34;5163922;28;20050;-58
2023/01/22 08:45:31;;;;;;;12.15;5.40;;;2.60;99.90;;;2.20;100.00;102407.34;5163174;28;20053;-57
2023/01/22 08:48:05;;;;;;;14.27;6.03;;;2.60;99.90;;;2.20;100.00;102412.50;5163276;28;20046;-58
2023/01/22 08:50:37;;;;;;;14.02;5.97;;;2.60;99.90;;;2.20;100.00;102397.06;5162965;28;20517;-58
2023/01/22 08:53:09;;;;;;;10.90;4.68;;;2.60;99.90;;;2.55;100.00;102404.59;5163145;28;20050;-59
2023/01/22 08:55:41;;;;;;;13.25;5.03;;;2.90;99.90;;;2.72;100.00;102407.94;5163280;28;20042;-56
2023/01/22 08:58:14;;;;;;;14.35;5.53;;;3.10;99.90;;;2.69;100.00;102404.19;5162741;28;20038;-57
2023/01/22 09:00:46;;;;;;;12.13;5.65;;;3.10;99.90;;;2.62;100.00;102404.41;5161269;28;20058;-59
2023/01/22 09:03:19;;;;;;;11.05;5.15;;;3.10;99.90;;;2.58;100.00;102407.44;5163479;28;20065;-58
2023/01/22 09:05:51;;;;;;;12.18;5.00;;;3.00;99.90;;;2.56;100.00;102398.69;5162793;28;20422;-59
2023/01/22 09:08:23;;;;;;;12.43;5.47;;;3.00;99.90;;;2.56;100.00;102396.13;5163014;28;20479;-56
2023/01/22 09:10:55;;;;;;;12.27;5.30;;;3.00;99.90;;;2.54;100.00;102395.03;5162509;28;20069;-56
2023/01/22 09:13:27;;;;;;;12.55;5.60;;;3.00;99.90;;;2.52;100.00;102400.06;5163077;28;20047;-56
2023/01/22 09:16:00;;;;;;;13.38;5.57;;;2.90;99.90;;;2.49;100.00;102398.88;5163319;28;20069;-56
2023/01/22 09:18:33;;;;;;;11.98;5.07;;;2.90;99.90;;;2.45;100.00;102401.16;5177634;28;20338;-57
2023/01/22 09:21:06;;;;;;;12.20;5.88;;;2.90;99.90;;;2.47;100.00;102405.53;5162408;28;20411;-56
2023/01/22 09:23:39;;;;;;;13.23;5.45;;;2.90;99.90;;;2.49;100.00;102407.50;5162945;28;20513;-58
2023/01/22 09:26:11;;;;;;;12.60;5.30;;;2.80;99.90;;;2.52;100.00;102409.44;5165800;28;20149;-59
2023/01/22 09:28:43;;;;;;;12.15;5.63;;;2.90;99.90;;;2.55;100.00;102417.47;5166567;28;20430;-58
2023/01/22 09:31:15;;;;;;;11.85;4.95;;;2.90;99.90;;;2.58;100.00;102417.75;5166641;28;20050;-58
2023/01/22 09:33:50;;;;;;;12.95;5.63;;;2.90;99.90;;;2.59;100.00;102422.13;5167153;28;20054;-57
2023/01/22 09:36:22;;;;;;;12.30;5.28;;;2.90;99.90;;;2.61;100.00;102412.91;5181995;28;20096;-59
2023/01/22 09:38:55;;;;;;;11.10;4.93;;;2.90;99.90;;;2.62;100.00;102405.31;5181276;28;20053;-56
2023/01/22 09:41:32;;;;;;;12.02;5.05;;;3.00;99.90;;;2.64;100.00;102408.00;5166951;28;20065;-58
2023/01/22 09:44:09;;;;;;;11.73;5.28;;;3.00;99.90;;;2.63;100.00;102411.34;5167122;28;20097;-57
2023/01/22 09:46:45;;;;;;;11.73;4.63;;;3.00;99.90;;;2.61;100.00;102406.06;5166609;28;20050;-58
2023/01/22 09:49:21;;;;;;;10.57;4.88;;;3.00;99.90;;;2.62;100.00;102409.56;5166311;28;20081;-60
2023/01/22 09:51:55;;;;;;;11.57;5.05;;;3.00;99.90;;;2.64;100.00;102415.75;5166713;28;20046;-56
2023/01/22 09:54:29;;;;;;;10.43;4.85;;;3.00;99.90;;;2.63;100.00;102421.66;5166489;28;20056;-57
2023/01/22 09:57:06;;;;;;;10.50;4.97;;;3.00;99.90;;;2.66;100.00;102421.94;5166665;28;20078;-58
2023/01/22 09:59:48;;;;;;;11.02;5.10;;;3.00;99.90;;;2.70;100.00;102418.88;5165631;28;20545;-58
2023/01/22 10:02:26;;;;;;;9.35;4.20;;;3.00;99.90;;;2.72;100.00;102422.50;5166918;28;20053;-56
2023/01/22 10:05:09;;;;;;;11.35;5.15;;;3.10;99.90;;;2.74;100.00;102421.00;5166414;28;20042;-57
2023/01/22 10:07:49;;;;;;;10.20;4.78;;;3.10;99.90;;;2.77;100.00;102425.50;5164751;28;20046;-57
2023/01/22 10:10:24;;;;;;;11.45;4.50;;;3.10;99.90;;;2.79;100.00;102419.72;5165126;28;20044;-57
2023/01/22 10:13:06;;;;;;;11.05;4.78;;;3.10;99.90;;;2.79;100.00;102424.84;5167191;28;20050;-55
2023/01/22 10:15:39;;;;;;;11.52;4.60;;;3.10;99.90;;;2.79;100.00;102424.84;5167481;28;20042;-55
2023/01/22 10:18:25;;;;;;;12.18;4.35;;;3.10;99.90;;;2.78;100.00;102433.34;5167011;28;20039;-57
2023/01/22 10:21:04;;;;;;;12.48;5.18;;;3.20;99.90;;;2.78;100.00;102433.34;5166051;28;20407;-58
2023/01/22 10:23:36;;;;;;;8.43;3.95;;;3.20;99.90;;;2.77;100.00;102431.56;5166610;28;20057;-56
2023/01/22 10:26:17;;;;;;;12.63;5.95;;;3.10;99.90;;;2.75;100.00;102422.78;5165973;28;20527;-57
2023/01/22 10:28:52;;;;;;;11.60;4.32;;;3.10;99.90;;;2.72;100.00;102427.66;5165772;28;20042;-56
2023/01/22 10:31:27;;;;;;;13.95;4.95;;;3.10;99.90;;;2.72;100.00;102422.50;5165670;28;20046;-60
2023/01/22 10:34:02;;;;;;;10.75;4.85;;;3.10;99.90;;;2.72;100.00;102422.50;5181024;28;20082;-57
2023/01/22 10:36:35;;;;;;;12.43;5.00;;;3.10;99.90;;;2.72;100.00;102425.06;5164608;28;20042;-57
2023/01/22 10:39:12;;;;;;;11.77;5.55;;;3.10;99.90;;;2.74;100.00;102421.00;5165254;28;20220;-58
2023/01/22 10:41:47;;;;;;;13.30;5.40;;;3.10;99.90;;;2.72;100.00;102413.09;5165598;28;20566;-59
2023/01/22 10:44:22;;;;;;;12.57;5.13;;;3.10;99.90;;;2.71;100.00;102406.13;5165556;28;20040;-57
2023/01/22 10:46:55;;;;;;;11.13;5.25;;;3.10;99.90;;;2.71;100.00;102412.97;5165554;28;20515;-57
2023/01/22 10:49:28;;;;;;;13.05;5.47;;;3.10;99.90;;;2.72;100.00;102407.03;5165123;28;20407;-57
2023/01/22 10:52:15;;;;;;;12.95;4.97;;;3.10;99.90;;;2.73;100.00;102403.69;5165672;28;20442;-56